Time;durP1;ratioP1;P1;durP2;ratioP2;P2;SDS_P1;SDS_P2;PMS_P1;PMS_P2;Temp;Humidity;BMP_temperature;BMP_pressure;BME280_temperature;BME280_humidity;BME280_pressure;Samples;Min_cycle;Max_cycle;Signal;HPM_P1;HPM_P2
2022/04/08 00:02:09;;;;;;;16.73;1.70;;;5.90;99.90;;;;;;4862755;29;20476;-85
2022/04/08 00:04:47;;;;;;;8.95;1.20;;;5.60;99.90;;;;;;4862346;29;20100;-85
2022/04/08 00:07:12;;;;;;;6.28;1.00;;;5.40;99.90;;;;;;4862353;29;20053;-85
2022/04/08 00:09:38;;;;;;;7.13;1.00;;;5.40;99.90;;;;;;4877798;29;20045;-85
2022/04/08 00:12:19;;;;;;;9.20;1.60;;;5.50;99.90;;;;;;4863027;29;20112;-86
2022/04/08 00:14:45;;;;;;;9.13;1.20;;;5.40;99.90;;;;;;4862509;29;20509;-86
2022/04/08 00:17:10;;;;;;;8.27;1.08;;;5.60;99.90;;;;;;4862134;29;20056;-85
2022/04/08 00:19:51;;;;;;;10.90;1.20;;;5.50;99.90;;;;;;4863447;29;20053;-86
2022/04/08 00:22:20;;;;;;;7.57;1.40;;;5.30;99.90;;;;;;4862929;29;20056;-86
2022/04/08 00:24:46;;;;;;;8.98;1.52;;;6.40;99.90;;;;;;4862639;29;20189;-85
2022/04/08 00:27:27;;;;;;;7.45;1.02;;;5.80;99.90;;;;;;4878413;29;20057;-84
2022/04/08 00:30:06;;;;;;;5.03;1.05;;;5.30;99.90;;;;;;4862249;29;20508;-84
2022/04/08 00:32:33;;;;;;;7.13;0.60;;;5.20;99.90;;;;;;4877760;29;20044;-85
2022/04/08 00:34:59;;;;;;;2.25;0.70;;;5.00;99.90;;;;;;4862326;29;20644;-84
2022/04/08 00:37:31;;;;;;;2.53;0.50;;;5.60;99.90;;;;;;4862204;29;20167;-85
2022/04/08 00:39:57;;;;;;;4.87;0.50;;;4.60;99.90;;;;;;4861983;29;20051;-84
2022/04/08 00:42:23;;;;;;;6.53;0.52;;;5.30;99.90;;;;;;4877594;29;20040;-84
2022/04/08 00:44:51;;;;;;;1.98;0.40;;;4.60;99.90;;;;;;4861013;29;20628;-84
2022/04/08 00:47:17;;;;;;;6.03;0.75;;;4.40;99.90;;;;;;4877318;29;20059;-85
2022/04/08 00:49:43;;;;;;;8.70;1.10;;;4.20;99.90;;;;;;4877651;29;20056;-85
2022/04/08 00:52:29;;;;;;;6.95;1.08;;;5.60;99.90;;;;;;4861083;29;20057;-84
2022/04/08 00:54:56;;;;;;;5.43;0.98;;;4.50;99.90;;;;;;4876616;29;20071;-84
2022/04/08 00:57:47;;;;;;;8.93;1.23;;;4.40;99.90;;;;;;4876856;29;20496;-86
2022/04/08 01:00:22;;;;;;;10.40;1.40;;;4.50;99.90;;;;;;4860218;29;20083;-85
2022/04/08 01:02:48;;;;;;;12.00;2.28;;;5.70;99.90;;;;;;4878217;29;20103;-86
2022/04/08 01:05:30;;;;;;;19.40;1.48;;;4.40;99.90;;;;;;4875618;29;20057;-86
2022/04/08 01:07:59;;;;;;;15.60;1.90;;;4.20;99.90;;;;;;4861212;29;20128;-85
2022/04/08 01:10:40;;;;;;;13.00;2.25;;;4.60;99.90;;;;;;4861736;29;20135;-85
2022/04/08 01:13:06;;;;;;;12.35;1.75;;;4.70;99.90;;;;;;4876628;29;20048;-86
2022/04/08 01:15:45;;;;;;;15.27;2.35;;;5.90;99.90;;;;;;4876116;29;20382;-85
2022/04/08 01:18:10;;;;;;;16.75;2.03;;;4.20;99.90;;;;;;4861465;29;20053;-85
2022/04/08 01:20:36;;;;;;;14.80;1.70;;;3.50;99.90;;;;;;4860596;29;20433;-85
2022/04/08 01:23:02;;;;;;;8.23;1.48;;;4.20;99.90;;;;;;4861812;29;20055;-86
2022/04/08 01:25:43;;;;;;;15.95;1.98;;;5.20;99.90;;;;;;4861130;29;20052;-85
2022/04/08 01:28:09;;;;;;;11.35;1.70;;;5.00;99.90;;;;;;4875583;29;20048;-84
2022/04/08 01:30:34;;;;;;;20.38;2.10;;;4.70;99.90;;;;;;4876228;29;20075;-85
2022/04/08 01:33:26;;;;;;;14.48;1.50;;;4.20;99.90;;;;;;4861257;29;20127;-85
2022/04/08 01:36:05;;;;;;;17.52;2.00;;;4.10;99.90;;;;;;4858138;29;20071;-84
2022/04/08 01:38:30;;;;;;;19.05;2.58;;;4.80;99.90;;;;;;4876198;29;20052;-84
2022/04/08 01:40:56;;;;;;;17.77;2.17;;;4.20;99.90;;;;;;4876382;29;20048;-84
2022/04/08 01:43:22;;;;;;;22.05;2.00;;;4.20;99.90;;;;;;4876626;29;20048;-84
2022/04/08 01:45:55;;;;;;;11.95;2.30;;;4.60;99.90;;;;;;4875478;29;20083;-84
2022/04/08 01:48:21;;;;;;;14.00;2.03;;;4.70;99.90;;;;;;4860136;29;20072;-84
2022/04/08 01:50:46;;;;;;;18.85;2.25;;;4.70;99.90;;;;;;4876548;29;20053;-85
2022/04/08 01:53:15;;;;;;;17.50;2.13;;;4.10;99.90;;;;;;4861028;29;20048;-84
2022/04/08 01:55:41;;;;;;;10.50;1.40;;;4.60;99.90;;;;;;4860058;29;20048;-84
2022/04/08 01:58:32;;;;;;;11.80;1.73;;;5.00;99.90;;;;;;4860791;29;20192;-84
2022/04/08 02:00:58;;;;;;;14.98;1.92;;;4.20;99.90;;;;;;4875669;29;20057;-85
2022/04/08 02:03:36;;;;;;;11.15;1.65;;;5.10;99.90;;;;;;4859621;29;20044;-85
2022/04/08 02:06:01;;;;;;;14.65;1.85;;;4.20;99.90;;;;;;4860248;29;20048;-84
2022/04/08 02:08:27;;;;;;;11.60;2.35;;;4.90;99.90;;;;;;4892360;29;20339;-84
2022/04/08 02:10:54;;;;;;;15.65;2.00;;;4.10;99.90;;;;;;4891654;29;20052;-84
2022/04/08 02:13:26;;;;;;;14.07;1.92;;;4.60;99.90;;;;;;4860653;29;20067;-85
2022/04/08 02:15:54;;;;;;;16.58;1.65;;;4.10;99.90;;;;;;4860426;29;20055;-84
2022/04/08 02:18:20;;;;;;;18.20;2.03;;;4.20;99.90;;;;;;4863665;29;20060;-85
2022/04/08 02:20:46;;;;;;;11.52;2.03;;;4.00;99.90;;;;;;4896003;29;20052;-84
2022/04/08 02:23:11;;;;;;;14.82;2.20;;;4.30;99.90;;;;;;4863370;29;20452;-84
2022/04/08 02:25:57;;;;;;;11.65;1.85;;;4.80;99.90;;;;;;4864595;29;20060;-85
2022/04/08 02:28:23;;;;;;;15.80;2.10;;;4.10;99.90;;;;;;4879690;29;20063;-84
2022/04/08 02:30:52;;;;;;;15.45;2.03;;;4.10;99.90;;;;;;4893788;29;20056;-85
2022/04/08 02:33:27;;;;;;;21.23;3.05;;;4.80;99.90;;;;;;4865719;29;20539;-84
2022/04/08 02:35:52;;;;;;;16.38;2.60;;;4.20;99.90;;;;;;4865280;29;20057;-85
2022/04/08 02:38:18;;;;;;;11.05;1.77;;;4.30;99.90;;;;;;4894549;29;20519;-85
2022/04/08 02:40:44;;;;;;;17.02;2.30;;;4.40;99.90;;;;;;4909931;29;20075;-84
2022/04/08 02:43:09;;;;;;;14.88;1.85;;;5.00;99.90;;;;;;4893338;29;20193;-85
2022/04/08 02:45:43;;;;;;;15.60;1.75;;;4.20;99.90;;;;;;4878658;29;20099;-85
2022/04/08 02:48:08;;;;;;;;;;;4.10;99.90;;;;;;4864616;29;20138;-84
2022/04/08 02:50:34;;;;;;;11.32;1.40;;;5.50;99.90;;;;;;4863983;29;19967;-84
2022/04/08 02:52:59;;;;;;;18.85;2.00;;;3.00;99.90;;;;;;4864031;29;20052;-84
2022/04/08 02:55:25;;;;;;;15.82;2.05;;;4.00;99.90;;;;;;4879904;29;20690;-84
2022/04/08 02:58:06;;;;;;;9.15;1.48;;;4.00;99.90;;;;;;4864021;29;20052;-84
2022/04/08 03:00:32;;;;;;;9.15;1.40;;;3.90;99.90;;;;;;4862399;29;20136;-84
2022/04/08 03:02:57;;;;;;;10.88;1.73;;;4.80;99.90;;;;;;4865012;29;20135;-84
2022/04/08 03:05:23;;;;;;;15.57;2.42;;;4.30;99.90;;;;;;4863669;29;20049;-84
2022/04/08 03:08:01;;;;;;;8.52;1.30;;;3.90;99.90;;;;;;4864811;29;20511;-84
2022/04/08 03:10:27;;;;;;;12.75;1.60;;;3.80;99.90;;;;;;4863564;29;20056;-84
2022/04/08 03:12:52;;;;;;;14.07;1.77;;;3.80;99.90;;;;;;4878993;29;20041;-84
2022/04/08 03:15:18;;;;;;;11.18;1.20;;;3.90;99.90;;;;;;4878200;29;20041;-84
2022/04/08 03:17:45;;;;;;;9.43;1.75;;;4.30;99.90;;;;;;4864364;29;20176;-84
2022/04/08 03:20:20;;;;;;;12.93;1.55;;;4.20;99.90;;;;;;4862360;29;20057;-84
2022/04/08 03:22:45;;;;;;;12.07;1.90;;;4.10;99.90;;;;;;4879751;29;20060;-85
2022/04/08 03:25:11;;;;;;;9.05;1.50;;;4.50;99.90;;;;;;4862851;29;20048;-84
2022/04/08 03:27:37;;;;;;;10.80;2.10;;;3.70;99.90;;;;;;4863046;29;20044;-84
2022/04/08 03:30:24;;;;;;;10.88;1.73;;;3.60;99.90;;;;;;4862050;29;20576;-83
2022/04/08 03:32:50;;;;;;;13.10;1.50;;;3.60;99.90;;;;;;4863663;29;20112;-84
2022/04/08 03:35:15;;;;;;;11.15;1.77;;;3.60;99.90;;;;;;4862473;29;20405;-84
2022/04/08 03:37:55;;;;;;;9.95;1.45;;;3.70;99.90;;;;;;4863864;29;20072;-85
2022/04/08 03:40:21;;;;;;;6.30;1.23;;;3.60;99.90;;;;;;4878323;29;20568;-85
2022/04/08 03:42:46;;;;;;;4.93;1.42;;;3.20;99.90;;;;;;4862332;29;20139;-84
2022/04/08 03:45:13;;;;;;;6.28;1.17;;;4.50;99.90;;;;;;4877797;29;20137;-85
2022/04/08 03:47:54;;;;;;;7.20;1.35;;;4.70;99.90;;;;;;4878231;29;20048;-84
2022/04/08 03:50:19;;;;;;;16.42;2.10;;;5.20;99.90;;;;;;4863060;29;20052;-84
2022/04/08 03:52:45;;;;;;;11.25;1.50;;;3.70;99.90;;;;;;4878559;29;20049;-84
2022/04/08 03:55:26;;;;;;;15.90;2.00;;;3.70;99.90;;;;;;4877639;29;20047;-85
2022/04/08 03:57:52;;;;;;;11.60;1.75;;;3.60;99.90;;;;;;4863179;29;20060;-84
2022/04/08 04:00:18;;;;;;;8.35;1.60;;;3.70;99.90;;;;;;4861918;29;20108;-85
2022/04/08 04:02:43;;;;;;;10.80;1.90;;;3.90;99.90;;;;;;4877783;29;20040;-85
2022/04/08 04:05:21;;;;;;;10.80;1.73;;;3.70;99.90;;;;;;4862446;29;20052;-85
2022/04/08 04:07:47;;;;;;;9.27;1.15;;;3.90;99.90;;;;;;4863283;29;20056;-85
2022/04/08 04:10:14;;;;;;;7.28;1.80;;;4.30;99.90;;;;;;4892711;29;20055;-84
2022/04/08 04:12:43;;;;;;;5.03;0.68;;;3.90;99.90;;;;;;4894441;29;20053;-84
2022/04/08 04:15:09;;;;;;;3.97;0.73;;;3.80;99.90;;;;;;4892593;29;20108;-84
2022/04/08 04:17:50;;;;;;;5.90;0.82;;;3.70;99.90;;;;;;4893495;29;20056;-84
2022/04/08 04:20:16;;;;;;;7.68;0.88;;;3.50;99.90;;;;;;4862248;29;20139;-85
2022/04/08 04:22:58;;;;;;;5.47;0.98;;;3.60;99.90;;;;;;4863425;29;20559;-87
2022/04/08 04:25:36;;;;;;;7.03;1.10;;;3.30;99.90;;;;;;4879834;29;20183;-84
2022/04/08 04:28:03;;;;;;;6.60;1.00;;;3.10;99.90;;;;;;4880784;29;20052;-85
2022/04/08 04:30:28;;;;;;;5.13;1.20;;;3.20;99.90;;;;;;4894723;29;20047;-85
2022/04/08 04:32:56;;;;;;;7.75;0.95;;;3.20;99.90;;;;;;4896745;29;20056;-84
2022/04/08 04:35:36;;;;;;;7.60;1.23;;;3.10;99.90;;;;;;4880706;29;20063;-84
2022/04/08 04:38:01;;;;;;;8.98;1.40;;;3.00;99.90;;;;;;4895624;29;20079;-84
2022/04/08 04:40:27;;;;;;;9.25;1.80;;;3.10;99.90;;;;;;4895950;29;20048;-84
2022/04/08 04:42:53;;;;;;;9.00;1.38;;;3.10;99.90;;;;;;4877801;29;20091;-85
2022/04/08 04:45:39;;;;;;;7.35;1.23;;;3.10;99.90;;;;;;4876188;29;20052;-84
2022/04/08 04:48:05;;;;;;;9.52;1.30;;;2.60;99.90;;;;;;4861722;29;20184;-84
2022/04/08 04:50:43;;;;;;;4.20;1.05;;;3.00;99.90;;;;;;4877057;29;20060;-84
2022/04/08 04:53:09;;;;;;;6.93;1.65;;;3.20;99.90;;;;;;4875962;29;20052;-84
2022/04/08 04:55:34;;;;;;;8.93;1.65;;;4.10;99.90;;;;;;4862051;29;20123;-84
2022/04/08 04:58:01;;;;;;;3.63;1.02;;;4.10;99.90;;;;;;4860686;29;20095;-84
2022/04/08 05:00:52;;;;;;;7.45;1.80;;;3.40;99.90;;;;;;4876989;29;20048;-84
2022/04/08 05:03:18;;;;;;;7.40;1.40;;;3.00;99.90;;;;;;4861625;29;20064;-84
2022/04/08 05:05:55;;;;;;;6.60;1.15;;;3.10;99.90;;;;;;4860815;29;20045;-83
2022/04/08 05:08:21;;;;;;;6.70;1.50;;;2.50;99.90;;;;;;4877244;29;20045;-84
2022/04/08 05:10:47;;;;;;;9.00;1.42;;;4.40;99.90;;;;;;4862055;29;20379;-84
2022/04/08 05:13:13;;;;;;;6.40;1.20;;;3.20;99.90;;;;;;4861032;29;20505;-84
2022/04/08 05:15:56;;;;;;;5.78;1.20;;;3.30;99.90;;;;;;4864587;29;20083;-84
2022/04/08 05:18:22;;;;;;;8.18;1.08;;;3.20;99.90;;;;;;4876734;29;20112;-84
2022/04/08 05:20:52;;;;;;;8.52;0.95;;;3.40;99.90;;;;;;4860872;29;20087;-83
2022/04/08 05:23:31;;;;;;;8.18;2.00;;;4.10;99.90;;;;;;4876217;29;20109;-84
2022/04/08 05:25:57;;;;;;;6.95;1.30;;;4.10;99.90;;;;;;4891979;29;20048;-84
2022/04/08 05:28:23;;;;;;;4.03;0.90;;;3.90;99.90;;;;;;4891723;29;20047;-84
2022/04/08 05:30:49;;;;;;;3.55;0.90;;;3.20;99.90;;;;;;4876045;29;20044;-83
2022/04/08 05:33:26;;;;;;;2.80;0.93;;;3.20;99.90;;;;;;4860673;29;20048;-84
2022/04/08 05:35:52;;;;;;;2.42;0.80;;;3.10;99.90;;;;;;4861044;29;20044;-83
2022/04/08 05:38:19;;;;;;;7.00;0.90;;;3.20;99.90;;;;;;4892049;29;20044;-84
2022/04/08 05:40:44;;;;;;;7.72;1.02;;;2.30;99.90;;;;;;4875907;29;20055;-84
2022/04/08 05:43:30;;;;;;;4.78;1.38;;;4.30;99.90;;;;;;4891901;29;20073;-84
2022/04/08 05:45:56;;;;;;;8.25;1.10;;;3.40;99.90;;;;;;4860524;29;20096;-84
2022/04/08 05:48:22;;;;;;;5.38;0.88;;;3.30;99.90;;;;;;4875945;29;20159;-84
2022/04/08 05:51:02;;;;;;;5.15;1.20;;;3.70;99.90;;;;;;4860364;29;20045;-84
2022/04/08 05:53:28;;;;;;;6.50;1.27;;;3.40;99.90;;;;;;4876886;29;20047;-84
2022/04/08 05:55:58;;;;;;;5.03;1.23;;;4.10;99.90;;;;;;4891405;29;20417;-84
2022/04/08 05:58:39;;;;;;;8.13;1.10;;;4.40;99.90;;;;;;4875678;29;20185;-84
2022/04/08 06:01:04;;;;;;;6.22;1.10;;;5.10;99.90;;;;;;4875185;29;20119;-84
2022/04/08 06:03:30;;;;;;;4.38;1.10;;;3.80;99.90;;;;;;4891285;29;20048;-84
2022/04/08 06:06:04;;;;;;;7.43;0.88;;;3.90;99.90;;;;;;4882421;29;20044;-84
2022/04/08 06:08:30;;;;;;;5.05;1.25;;;3.90;99.90;;;;;;4878831;29;20456;-85
2022/04/08 06:10:56;;;;;;;10.10;1.33;;;4.90;99.90;;;;;;4879175;29;20055;-84
2022/04/08 06:13:24;;;;;;;6.47;1.00;;;4.20;99.90;;;;;;4879437;29;20051;-85
2022/04/08 06:16:03;;;;;;;7.00;1.38;;;4.10;99.90;;;;;;4877938;29;20040;-85
2022/04/08 06:18:29;;;;;;;6.13;1.50;;;3.90;99.90;;;;;;4877514;29;20052;-83
2022/04/08 06:20:54;;;;;;;12.48;1.75;;;3.90;99.90;;;;;;4893136;29;20043;-85
2022/04/08 06:23:20;;;;;;;6.00;1.50;;;4.80;99.90;;;;;;4882308;29;20083;-85
2022/04/08 06:25:48;;;;;;;5.10;1.55;;;4.00;99.90;;;;;;4887359;29;20083;-84
2022/04/08 06:28:26;;;;;;;7.70;1.30;;;5.00;99.90;;;;;;4910219;29;20048;-84
2022/04/08 06:30:51;;;;;;;8.43;1.73;;;4.30;99.90;;;;;;4888983;29;20047;-84
2022/04/08 06:33:17;;;;;;;4.97;1.10;;;4.80;99.90;;;;;;4880554;29;20535;-84
2022/04/08 06:35:43;;;;;;;4.95;1.30;;;4.20;99.90;;;;;;4895683;29;20058;-84
2022/04/08 06:38:23;;;;;;;10.13;2.10;;;4.30;99.90;;;;;;4895683;29;20048;-84
2022/04/08 06:40:49;;;;;;;6.70;1.33;;;4.20;99.90;;;;;;4893563;29;20176;-85
2022/04/08 06:43:15;;;;;;;8.13;1.60;;;5.10;99.90;;;;;;4888177;29;20050;-84
2022/04/08 06:45:40;;;;;;;13.13;2.03;;;4.00;99.90;;;;;;4881689;29;20123;-84
2022/04/08 06:48:19;;;;;;;8.10;1.60;;;4.40;99.90;;;;;;4889609;29;20058;-84
2022/04/08 06:50:45;;;;;;;9.48;2.08;;;5.30;99.90;;;;;;4902080;29;20590;-84
2022/04/08 06:53:11;;;;;;;9.93;1.80;;;4.40;99.90;;;;;;4888104;29;20044;-84
2022/04/08 06:55:36;;;;;;;14.18;1.90;;;4.60;99.90;;;;;;4894412;29;20142;-84
2022/04/08 06:58:15;;;;;;;9.93;2.38;;;4.70;99.90;;;;;;4903444;29;20079;-84
2022/04/08 07:00:40;;;;;;;7.35;2.33;;;4.70;99.90;;;;;;4888256;29;20168;-84
2022/04/08 07:03:06;;;;;;;10.27;2.22;;;4.90;99.90;;;;;;4884244;29;20040;-84
2022/04/08 07:05:32;;;;;;;11.73;1.85;;;4.90;99.90;;;;;;4896658;29;20416;-84
2022/04/08 07:07:58;;;;;;;8.65;1.50;;;5.40;99.90;;;;;;4908684;29;20071;-84
2022/04/08 07:10:24;;;;;;;12.88;2.05;;;5.40;99.90;;;;;;4900774;29;20182;-84
2022/04/08 07:12:56;;;;;;;7.97;1.88;;;5.40;99.90;;;;;;4892832;29;20511;-84
2022/04/08 07:15:21;;;;;;;6.95;1.65;;;6.30;99.90;;;;;;4881385;29;20044;-83
2022/04/08 07:17:47;;;;;;;9.18;1.60;;;5.80;99.90;;;;;;4894387;29;20066;-84
2022/04/08 07:20:14;;;;;;;5.10;1.55;;;6.00;99.90;;;;;;4878496;29;20044;-84
2022/04/08 07:22:53;;;;;;;7.90;2.00;;;5.40;99.90;;;;;;4907827;29;20506;-85
2022/04/08 07:25:19;;;;;;;7.55;1.60;;;5.40;99.90;;;;;;4878657;29;20090;-84
2022/04/08 07:27:47;;;;;;;14.35;2.05;;;5.60;99.90;;;;;;4881209;29;20047;-84
2022/04/08 07:30:14;;;;;;;9.23;1.90;;;5.70;99.90;;;;;;4893273;29;20043;-84
2022/04/08 07:32:52;;;;;;;13.13;2.10;;;5.80;99.90;;;;;;4916153;29;20051;-84
2022/04/08 07:35:19;;;;;;;10.13;1.70;;;5.80;99.90;;;;;;4887397;29;20059;-85
2022/04/08 07:37:44;;;;;;;10.60;1.65;;;6.00;99.90;;;;;;4915952;29;20051;-85
2022/04/08 07:40:14;;;;;;;10.85;1.88;;;6.70;99.90;;;;;;4893127;29;20040;-84
2022/04/08 07:42:40;;;;;;;15.95;1.90;;;6.30;99.90;;;;;;4885518;29;20106;-83
2022/04/08 07:45:07;;;;;;;15.55;1.73;;;7.70;99.90;;;;;;4883542;29;20086;-83
2022/04/08 07:47:33;;;;;;;5.72;1.35;;;6.70;99.90;;;;;;4910377;29;20452;-83
2022/04/08 07:50:13;;;;;;;10.05;1.60;;;6.70;99.90;;;;;;4896658;29;20044;-84
2022/04/08 07:52:40;;;;;;;10.00;1.50;;;6.80;99.90;;;;;;4881666;29;20100;-83
2022/04/08 07:55:07;;;;;;;8.70;1.50;;;7.00;99.90;;;;;;4881109;29;20059;-84
2022/04/08 07:57:33;;;;;;;5.05;0.98;;;7.00;99.90;;;;;;4881765;29;20412;-84
2022/04/08 08:00:26;;;;;;;4.32;1.15;;;7.20;99.90;;;;;;4896383;29;20056;-84
2022/04/08 08:02:52;;;;;;;9.93;1.38;;;6.70;99.90;;;;;;4881214;29;20048;-82
2022/04/08 08:05:27;;;;;;;7.07;1.10;;;6.60;99.90;;;;;;4877343;29;20045;-83
2022/04/08 08:07:55;;;;;;;5.13;1.05;;;6.60;99.90;;;;;;4878301;29;20048;-83
2022/04/08 08:10:23;;;;;;;6.07;1.15;;;7.80;99.90;;;;;;4877466;29;20048;-83
2022/04/08 08:12:50;;;;;;;11.00;1.50;;;7.70;99.90;;;;;;4861882;29;20048;-82
2022/04/08 08:15:18;;;;;;;10.50;1.65;;;6.50;99.90;;;;;;4875406;29;20104;-82
2022/04/08 08:17:44;;;;;;;7.00;1.55;;;7.50;99.90;;;;;;4862791;29;20073;-83
2022/04/08 08:20:12;;;;;;;6.25;1.38;;;7.80;99.90;;;;;;4877150;29;20237;-83
2022/04/08 08:22:39;;;;;;;9.45;1.92;;;7.80;99.90;;;;;;4861750;29;20036;-82
2022/04/08 08:25:07;;;;;;;7.03;1.52;;;7.70;99.90;;;;;;4877101;29;20108;-82
2022/04/08 08:27:44;;;;;;;11.43;1.70;;;7.30;99.90;;;;;;4878249;29;20079;-82
2022/04/08 08:30:12;;;;;;;6.30;1.23;;;7.40;99.90;;;;;;4875556;29;20056;-82
2022/04/08 08:32:38;;;;;;;9.75;1.52;;;7.40;99.90;;;;;;4877977;29;20572;-82
2022/04/08 08:35:07;;;;;;;9.00;1.60;;;8.40;99.90;;;;;;4877309;29;20397;-82
2022/04/08 08:37:34;;;;;;;8.38;1.20;;;7.60;99.90;;;;;;4877276;29;20485;-82
2022/04/08 08:39:59;;;;;;;10.25;1.65;;;7.60;99.90;;;;;;4877323;29;20462;-82
2022/04/08 08:42:26;;;;;;;7.85;1.65;;;7.60;99.90;;;;;;4862256;29;20044;-82
2022/04/08 08:44:52;;;;;;;11.93;1.83;;;7.60;99.90;;;;;;4860312;29;20056;-82
2022/04/08 08:47:18;;;;;;;6.18;1.23;;;8.30;99.90;;;;;;4904384;29;20175;-81
2022/04/08 08:49:49;;;;;;;8.75;1.50;;;7.60;99.90;;;;;;4904045;29;20098;-81
2022/04/08 08:52:16;;;;;;;9.95;1.15;;;7.90;99.90;;;;;;4880793;29;20056;-82
2022/04/08 08:54:42;;;;;;;6.75;1.00;;;8.20;99.90;;;;;;4886441;29;20075;-82
2022/04/08 08:57:10;;;;;;;9.20;1.38;;;9.10;99.90;;;;;;4900620;29;20051;-82
2022/04/08 08:59:36;;;;;;;10.60;1.27;;;8.40;99.90;;;;;;4907811;29;20057;-81
2022/04/08 09:02:03;;;;;;;8.23;1.30;;;8.40;99.90;;;;;;4898403;29;20056;-81
2022/04/08 09:04:29;;;;;;;11.95;1.45;;;8.00;99.90;;;;;;4897472;29;20052;-81
2022/04/08 09:06:55;;;;;;;14.30;1.60;;;8.20;99.90;;;;;;4900869;29;20048;-81
2022/04/08 09:09:30;;;;;;;7.35;1.10;;;8.40;99.90;;;;;;4889924;29;20048;-82
2022/04/08 09:12:08;;;;;;;6.03;0.85;;;8.70;99.90;;;;;;4905048;29;20080;-82
2022/04/08 09:14:35;;;;;;;6.90;1.10;;;8.70;99.90;;;;;;4904695;29;20193;-83
2022/04/08 09:17:02;;;;;;;4.30;0.80;;;8.10;99.90;;;;;;4906007;29;20095;-82
2022/04/08 09:19:32;;;;;;;4.85;0.60;;;7.40;99.90;;;;;;4904334;29;20055;-81
2022/04/08 09:21:58;;;;;;;5.63;0.77;;;7.10;99.90;;;;;;4903687;29;20552;-81
2022/04/08 09:24:24;;;;;;;5.25;0.98;;;6.50;99.90;;;;;;4906996;29;20051;-81
2022/04/08 09:27:02;;;;;;;7.60;1.25;;;6.20;99.90;;;;;;4913290;29;20056;-81
2022/04/08 09:29:27;;;;;;;5.82;1.25;;;6.10;99.90;;;;;;4904216;29;20051;-82
2022/04/08 09:31:56;;;;;;;4.78;1.17;;;6.10;99.90;;;;;;4899943;29;20110;-83
2022/04/08 09:34:22;;;;;;;9.55;1.50;;;6.60;99.90;;;;;;4905886;29;20403;-83
2022/04/08 09:36:57;;;;;;;10.43;1.77;;;7.40;99.90;;;;;;4896082;29;20111;-82
2022/04/08 09:39:23;;;;;;;5.82;1.17;;;8.20;99.90;;;;;;4909710;29;20051;-83
2022/04/08 09:41:55;;;;;;;9.13;1.58;;;8.70;99.90;;;;;;4895869;29;20051;-82
2022/04/08 09:44:24;;;;;;;7.50;0.93;;;8.30;99.90;;;;;;4886510;29;20047;-82
2022/04/08 09:46:50;;;;;;;5.15;1.00;;;6.90;99.90;;;;;;4912829;29;20127;-83
2022/04/08 09:49:24;;;;;;;3.33;0.68;;;7.30;99.90;;;;;;4886649;29;20462;-84
2022/04/08 09:51:51;;;;;;;6.55;0.70;;;6.60;99.90;;;;;;4908677;29;20065;-85
2022/04/08 09:54:37;;;;;;;3.03;0.60;;;7.20;99.90;;;;;;4903618;29;20044;-82
2022/04/08 09:57:06;;;;;;;6.95;0.85;;;6.60;99.90;;;;;;4903803;29;20063;-82
2022/04/08 09:59:58;;;;;;;5.53;0.80;;;6.60;99.90;;;;;;4896924;29;20047;-83
2022/04/08 10:02:40;;;;;;;3.78;0.85;;;6.70;99.90;;;;;;4859889;29;20135;-83
2022/04/08 10:05:08;;;;;;;4.90;0.70;;;6.80;99.90;;;;;;4904302;29;20396;-82
2022/04/08 10:07:34;;;;;;;6.70;1.30;;;7.20;99.90;;;;;;4882945;29;20194;-82
2022/04/08 10:10:21;;;;;;;14.05;1.40;;;8.20;99.90;;;;;;4883914;29;20052;-83
2022/04/08 10:13:31;;;;;;;15.15;2.08;;;8.10;99.90;;;;;;4900494;29;20051;-83
2022/04/08 10:16:16;;;;;;;6.32;1.65;;;8.60;99.90;;;;;;4905423;29;20054;-84
2022/04/08 10:18:43;;;;;;;4.50;1.00;;;8.70;99.90;;;;;;4881406;29;20656;-83
2022/04/08 10:21:10;;;;;;;6.03;0.90;;;8.40;99.90;;;;;;4887632;29;20052;-84
2022/04/08 10:23:38;;;;;;;5.90;1.00;;;8.90;99.90;;;;;;4883171;29;20051;-83
2022/04/08 10:26:19;;;;;;;5.95;0.80;;;7.90;99.90;;;;;;4903983;29;20492;-84
2022/04/08 10:28:53;;;;;;;6.40;1.10;;;7.60;99.90;;;;;;4887674;29;20139;-83
2022/04/08 10:31:33;;;;;;;5.22;1.00;;;7.50;99.90;;;;;;4910609;29;20479;-84
2022/04/08 10:34:00;;;;;;;6.65;1.08;;;8.30;99.90;;;;;;4907581;29;20044;-83
2022/04/08 10:36:43;;;;;;;7.97;1.00;;;8.40;99.90;;;;;;4876370;29;20105;-83
2022/04/08 10:39:16;;;;;;;6.90;1.05;;;8.20;99.90;;;;;;4897290;29;20055;-84
2022/04/08 10:42:00;;;;;;;;;;;8.00;99.90;;;;;;4900656;29;20044;-83
2022/04/08 10:44:32;;;;;;;7.28;0.90;;;8.00;99.90;;;;;;4877748;29;19923;-84
2022/04/08 10:47:14;;;;;;;8.13;1.17;;;8.00;99.90;;;;;;4886109;23;20172;-84
2022/04/08 10:49:52;;;;;;;10.63;1.17;;;8.00;99.90;;;;;;4863528;29;20048;-84
2022/04/08 10:52:44;;;;;;;5.43;0.73;;;8.00;99.90;;;;;;4865202;29;20048;-84
2022/04/08 10:55:25;;;;;;;6.22;0.80;;;7.80;99.90;;;;;;4863485;29;20037;-84
2022/04/08 10:57:57;;;;;;;6.25;0.73;;;7.40;99.90;;;;;;4863780;29;20053;-84
2022/04/08 11:00:22;;;;;;;8.48;0.80;;;7.40;99.90;;;;;;4863216;29;20040;-84
2022/04/08 11:03:04;;;;;;;3.03;0.60;;;7.20;99.90;;;;;;4864531;29;20052;-84
2022/04/08 11:05:38;;;;;;;6.45;0.90;;;6.80;99.90;;;;;;4879069;29;20040;-84
2022/04/08 11:08:17;;;;;;;8.05;1.30;;;7.90;99.90;;;;;;4863485;29;20059;-84
2022/04/08 11:10:43;;;;;;;7.18;0.95;;;8.10;99.90;;;;;;4894063;29;20049;-84
2022/04/08 11:13:11;;;;;;;7.00;1.60;;;8.40;99.90;;;;;;4863723;29;20408;-84
2022/04/08 11:15:52;;;;;;;8.65;1.00;;;7.60;99.90;;;;;;4863363;29;20109;-84
2022/04/08 11:18:19;;;;;;;8.05;1.77;;;8.00;99.90;;;;;;4878189;29;20505;-84
2022/04/08 11:20:48;;;;;;;11.20;1.77;;;8.70;99.90;;;;;;4878467;29;20080;-83
2022/04/08 11:23:14;;;;;;;12.05;1.45;;;9.40;99.90;;;;;;4879170;29;20059;-84
2022/04/08 11:25:52;;;;;;;6.45;1.20;;;9.10;99.90;;;;;;4894159;29;20056;-84
2022/04/08 11:28:21;;;;;;;6.32;1.50;;;9.60;99.90;;;;;;4878630;29;20052;-83
2022/04/08 11:31:14;;;;;;;10.38;1.15;;;9.60;99.90;;;;;;4863183;29;20045;-83
2022/04/08 11:33:40;;;;;;;10.35;1.42;;;10.30;99.90;;;;;;4859770;29;20091;-83
2022/04/08 11:36:06;;;;;;;7.45;1.15;;;9.80;99.90;;;;;;4860142;29;20180;-83
2022/04/08 11:38:46;;;;;;;4.80;0.98;;;9.70;99.90;;;;;;4844153;29;20135;-83
2022/04/08 11:41:19;;;;;;;8.45;1.20;;;8.70;99.90;;;;;;4860440;29;20099;-84
2022/04/08 11:43:45;;;;;;;13.40;1.48;;;9.80;99.90;;;;;;4860114;29;20081;-83
2022/04/08 11:46:29;;;;;;;6.07;1.02;;;9.20;99.90;;;;;;4840956;29;20111;-83
2022/04/08 11:48:55;;;;;;;6.57;1.10;;;9.10;99.90;;;;;;4859876;29;20061;-83
2022/04/08 11:51:21;;;;;;;7.55;1.20;;;9.80;99.90;;;;;;4851585;29;20091;-84
2022/04/08 11:53:50;;;;;;;8.63;1.38;;;9.40;99.90;;;;;;4883317;29;20045;-83
2022/04/08 11:56:23;;;;;;;7.72;1.25;;;9.70;99.90;;;;;;4885067;29;20040;-83
2022/04/08 11:59:01;;;;;;;6.68;1.35;;;9.60;99.90;;;;;;4894891;29;20059;-83
2022/04/08 12:01:32;;;;;;;7.75;1.00;;;10.30;99.90;;;;;;4871233;29;20065;-85
2022/04/08 12:04:03;;;;;;;8.45;1.25;;;10.20;99.90;;;;;;4878979;29;20487;-83
2022/04/08 12:06:35;;;;;;;9.70;1.33;;;9.80;99.90;;;;;;4886125;29;20060;-84
2022/04/08 12:09:02;;;;;;;9.93;1.33;;;10.00;99.90;;;;;;4869587;29;20108;-85
2022/04/08 12:11:30;;;;;;;11.23;1.05;;;10.10;99.90;;;;;;4885062;29;20056;-83
2022/04/08 12:13:57;;;;;;;5.68;0.90;;;10.70;99.90;;;;;;4896945;29;20096;-83
2022/04/08 12:16:23;;;;;;;8.40;1.00;;;10.00;99.90;;;;;;4893191;29;20088;-83
2022/04/08 12:18:51;;;;;;;10.85;1.30;;;9.70;99.90;;;;;;4896673;29;20476;-82
2022/04/08 12:21:29;;;;;;;7.18;1.17;;;9.70;99.90;;;;;;4869937;29;20060;-82
2022/04/08 12:23:56;;;;;;;6.00;1.15;;;9.50;99.90;;;;;;4890918;29;20079;-83
2022/04/08 12:26:40;;;;;;;8.13;0.70;;;9.60;99.90;;;;;;4889157;29;20464;-83
2022/04/08 12:29:08;;;;;;;6.55;0.93;;;9.70;99.90;;;;;;4876247;29;20404;-82
2022/04/08 12:31:45;;;;;;;7.20;0.88;;;9.90;99.90;;;;;;4860239;29;20053;-83
2022/04/08 12:34:11;;;;;;;11.05;1.55;;;9.90;99.90;;;;;;4859223;29;20048;-82
2022/04/08 12:36:37;;;;;;;7.70;1.10;;;10.10;99.90;;;;;;4859156;29;20057;-82
2022/04/08 12:39:03;;;;;;;10.73;1.23;;;10.50;99.90;;;;;;4874287;29;20037;-82
2022/04/08 12:41:28;;;;;;;8.02;1.23;;;9.80;99.90;;;;;;4859216;29;20554;-82
2022/04/08 12:43:57;;;;;;;7.60;1.13;;;9.40;99.90;;;;;;4873475;29;20158;-82
2022/04/08 12:46:31;;;;;;;7.85;1.10;;;9.40;99.90;;;;;;4858938;29;20075;-82
2022/04/08 12:48:57;;;;;;;9.38;1.23;;;9.30;99.90;;;;;;4858806;29;20060;-82
2022/04/08 12:51:23;;;;;;;6.03;1.10;;;10.00;99.90;;;;;;4858170;29;20088;-82
2022/04/08 12:54:04;;;;;;;6.43;0.93;;;9.30;99.90;;;;;;4858993;29;20040;-82
2022/04/08 12:56:30;;;;;;;6.80;1.10;;;7.80;99.90;;;;;;4842834;29;20068;-82
2022/04/08 12:58:57;;;;;;;5.95;1.08;;;8.60;99.90;;;;;;4873695;29;20080;-82
2022/04/08 13:01:23;;;;;;;4.53;0.77;;;9.20;99.90;;;;;;4843250;29;20063;-82
2022/04/08 13:04:01;;;;;;;5.18;0.88;;;8.60;99.90;;;;;;4873215;29;20049;-82
2022/04/08 13:06:26;;;;;;;4.68;1.00;;;9.30;99.90;;;;;;4858730;29;20044;-82
2022/04/08 13:08:52;;;;;;;7.00;1.20;;;8.80;99.90;;;;;;4858757;29;20413;-82
2022/04/08 13:11:18;;;;;;;7.22;1.05;;;9.60;99.90;;;;;;4842447;29;20059;-82